Terminal Aerodrome Forecast
Issued by NWS Goodland, KS

Home | Current Version | Previous Version | Text Only | Print | Product List | Glossary Off
Versions: 1 2 3 4 5 6 7 8 9 10 11 12 13 14

000
FTUS43 KGLD 042023 AAB
TAFGLD
TAF AMD
KGLD 042023Z 0420/0518 VRB05KT P6SM SCT070
      TEMPO 0420/0421 05025G35KT FEW025
     FM042100 02008KT P6SM VCTS BKN025CB
     FM050000 11007KT P6SM SCT080
     FM050900 30005KT 4SM BR OVC007
     FM051600 34009KT P6SM SKC=

USA.gov is the U.S. government's official web portal to all federal, state and local government web resources and services.